Airfield :
LOGIN :

Register | Disclaimer

   EN    FR    IT 

 










Legend :    VFR   Marginal VFR   IFR   Intensive IFR   Very Intensive IFR
Visi :
Ceiling :
>= 8 km
>= 3000ft
5 to 8 km
1000 to 3000 ft
1500m to 5 km
500 to 1000 ft
800 to 1500m
200 to 500 ft
< 800m
< 200 ft
Symbols :   Thunderstorms  Fog  Heavy snow  Heavy precipitations  Wind > 20 kt
SIGMETs :     Misc.  Thunderstorms  Icing  Turbulence  Mountain Waves  Volcanic Ashes






- Airport Elevation : 844 ft
- IATA code : OSR


LKMT - Ostrava-Mosnov

CURRENT METAR :
  • 232000Z VRB02KT 0100 R22/0275N R04/0225N -DZ FG VV001 11/11 Q1018 NOSIG

EXPIRED METARs :
  • 231930Z VRB01KT 0100 R22/0275N R04/0225N -DZ FG VV001 12/11 Q1018 NOSIG
  • 231900Z VRB01KT 0100 R22/0275N R04/0200N -DZ FG VV001 07/07 Q1018 NOSIG
  • 231830Z VRB02KT 0100 R22/0250N R04/0200N -DZ FG VV001 12/12 Q1018 NOSIG
  • 231800Z 26003KT 0100 R22/0250N R04/0225N -DZ FG VV001 12/12 Q1018 NOSIG
  • 231753Z 26003KT 0100 R22/0250N R04/0225N -DZ FG VV001 12/12 Q1018 RMK REG QNH 1013
  • 231730Z 27003KT 230V310 0100 R22/0225N R04/0225N FG VV001 12/12 Q1018 NOSIG

TAF TAF LKMT
Valid from the 23 at 18:00 until the 25 at 00:00 UTC


231700Z 2318/2500 22004KT 0100 FG OVC001
TEMPO 2318/2406 0300 FG OVC002
PROB30
TEMPO 2318/2406 0700 FG BKN004
BECMG 2406/2409 22010KT CAVOK
TEMPO 2411/2418 22012G24KT



MET'MAP, your aeronautical weather chart ! - Copyright ORBIFLY December 2007 - Disclaimer

ORBIFLY MET'MAP TEAM :

Programming & Development : Alexandra Zaïnal
Concept & Development : Baudouin d'Aumeries
Co-Development & Prog : Marc-Olivier Méhu
Technical & hardware support : Manuel Goepfert

Contact : metmap@orbifly.com




SOURCES & CREDITS :

   NOAA